sensor_id;sensor_type;location;lat;lon;timestamp;pressure;altitude;pressure_sealevel;temperature;humidity
55610;BME280;41486;52.502;13.486;2023-05-24T00:01:51;101203.97;;;10.92;87.29
55610;BME280;41486;52.502;13.486;2023-05-24T00:04:22;101205.88;;;10.90;87.17
55610;BME280;41486;52.502;13.486;2023-05-24T00:06:54;101214.19;;;10.97;86.79
55610;BME280;41486;52.502;13.486;2023-05-24T00:09:22;101212.72;;;10.93;86.88
55610;BME280;41486;52.502;13.486;2023-05-24T00:11:50;101213.97;;;10.87;87.51
55610;BME280;41486;52.502;13.486;2023-05-24T00:14:18;101221.56;;;10.92;86.66
55610;BME280;41486;52.502;13.486;2023-05-24T00:16:46;101218.09;;;10.91;86.23
55610;BME280;41486;52.502;13.486;2023-05-24T00:19:16;101222.09;;;10.84;86.66
55610;BME280;41486;52.502;13.486;2023-05-24T00:21:47;101228.31;;;10.83;87.25
55610;BME280;41486;52.502;13.486;2023-05-24T00:24:18;101226.09;;;10.89;86.44
55610;BME280;41486;52.502;13.486;2023-05-24T00:26:46;101219.22;;;10.87;86.30
55610;BME280;41486;52.502;13.486;2023-05-24T00:29:15;101221.34;;;10.82;86.57
55610;BME280;41486;52.502;13.486;2023-05-24T00:31:43;101223.56;;;10.88;86.57
55610;BME280;41486;52.502;13.486;2023-05-24T00:34:11;101229.44;;;10.79;86.01
55610;BME280;41486;52.502;13.486;2023-05-24T00:36:40;101232.06;;;10.79;86.50
55610;BME280;41486;52.502;13.486;2023-05-24T00:39:08;101230.06;;;10.82;85.53
55610;BME280;41486;52.502;13.486;2023-05-24T00:41:36;101222.09;;;10.71;85.61
55610;BME280;41486;52.502;13.486;2023-05-24T00:44:04;101226.28;;;10.73;86.04
55610;BME280;41486;52.502;13.486;2023-05-24T00:46:32;101216.69;;;10.72;85.89
55610;BME280;41486;52.502;13.486;2023-05-24T00:49:01;101228.19;;;10.71;85.96
55610;BME280;41486;52.502;13.486;2023-05-24T00:51:30;101218.06;;;10.65;86.20
55610;BME280;41486;52.502;13.486;2023-05-24T00:54:01;101213.56;;;10.67;85.96
55610;BME280;41486;52.502;13.486;2023-05-24T00:56:29;101217.97;;;10.67;86.21
55610;BME280;41486;52.502;13.486;2023-05-24T00:58:58;101218.91;;;10.66;86.31
55610;BME280;41486;52.502;13.486;2023-05-24T01:01:26;101214.16;;;10.58;86.20
55610;BME280;41486;52.502;13.486;2023-05-24T01:03:57;101217.31;;;10.63;86.15
55610;BME280;41486;52.502;13.486;2023-05-24T01:06:27;101220.25;;;10.58;86.05
55610;BME280;41486;52.502;13.486;2023-05-24T01:09:10;101213.00;;;10.62;86.18
55610;BME280;41486;52.502;13.486;2023-05-24T01:11:52;101224.09;;;10.67;85.97
55610;BME280;41486;52.502;13.486;2023-05-24T01:14:26;101223.34;;;10.65;86.10
55610;BME280;41486;52.502;13.486;2023-05-24T01:17:03;101232.63;;;10.71;86.04
55610;BME280;41486;52.502;13.486;2023-05-24T01:19:48;101234.38;;;10.70;85.56
55610;BME280;41486;52.502;13.486;2023-05-24T01:25:40;101237.44;;;10.64;85.63
55610;BME280;41486;52.502;13.486;2023-05-24T01:28:15;101226.50;;;10.70;85.35
55610;BME280;41486;52.502;13.486;2023-05-24T01:30:44;101225.97;;;10.65;85.29
55610;BME280;41486;52.502;13.486;2023-05-24T01:33:12;101238.00;;;10.69;85.16
55610;BME280;41486;52.502;13.486;2023-05-24T01:35:40;101230.47;;;10.63;85.66
55610;BME280;41486;52.502;13.486;2023-05-24T01:38:09;101224.16;;;10.66;85.68
55610;BME280;41486;52.502;13.486;2023-05-24T01:40:38;101233.66;;;10.68;85.58
55610;BME280;41486;52.502;13.486;2023-05-24T01:43:15;101232.31;;;10.76;84.91
55610;BME280;41486;52.502;13.486;2023-05-24T01:45:51;101230.81;;;10.71;84.75
55610;BME280;41486;52.502;13.486;2023-05-24T01:48:26;101231.88;;;10.69;84.95
55610;BME280;41486;52.502;13.486;2023-05-24T01:50:59;101239.88;;;10.67;85.19
55610;BME280;41486;52.502;13.486;2023-05-24T01:53:31;101233.56;;;10.70;84.56
55610;BME280;41486;52.502;13.486;2023-05-24T01:56:01;101234.69;;;10.66;84.29
55610;BME280;41486;52.502;13.486;2023-05-24T01:58:33;101233.66;;;10.68;84.71
55610;BME280;41486;52.502;13.486;2023-05-24T02:01:02;101232.50;;;10.72;85.14
55610;BME280;41486;52.502;13.486;2023-05-24T02:03:30;101232.06;;;10.79;84.87
55610;BME280;41486;52.502;13.486;2023-05-24T02:05:58;101235.44;;;10.81;84.96
55610;BME280;41486;52.502;13.486;2023-05-24T02:08:26;101239.16;;;10.78;85.00
55610;BME280;41486;52.502;13.486;2023-05-24T02:10:54;101250.72;;;10.76;85.17
55610;BME280;41486;52.502;13.486;2023-05-24T02:13:22;101240.63;;;10.69;86.20
55610;BME280;41486;52.502;13.486;2023-05-24T02:15:52;101245.53;;;10.74;85.98
55610;BME280;41486;52.502;13.486;2023-05-24T02:18:20;101246.28;;;10.76;86.57
55610;BME280;41486;52.502;13.486;2023-05-24T02:20:48;101235.66;;;10.65;87.82
55610;BME280;41486;52.502;13.486;2023-05-24T02:23:16;101240.19;;;10.63;88.69
55610;BME280;41486;52.502;13.486;2023-05-24T02:25:44;101232.59;;;10.58;89.28
55610;BME280;41486;52.502;13.486;2023-05-24T02:28:12;101236.50;;;10.65;89.44
55610;BME280;41486;52.502;13.486;2023-05-24T02:30:40;101236.19;;;10.70;89.46
55610;BME280;41486;52.502;13.486;2023-05-24T02:33:12;101229.88;;;10.72;89.59
55610;BME280;41486;52.502;13.486;2023-05-24T02:35:40;101226.78;;;10.66;89.91
55610;BME280;41486;52.502;13.486;2023-05-24T02:38:08;101236.50;;;10.65;89.52
55610;BME280;41486;52.502;13.486;2023-05-24T02:40:36;101236.06;;;10.71;89.97
55610;BME280;41486;52.502;13.486;2023-05-24T02:43:04;101238.28;;;10.52;90.44
55610;BME280;41486;52.502;13.486;2023-05-24T02:45:32;101234.47;;;10.56;91.28
55610;BME280;41486;52.502;13.486;2023-05-24T02:48:00;101236.34;;;10.54;91.65
55610;BME280;41486;52.502;13.486;2023-05-24T02:50:30;101233.31;;;10.47;92.36
55610;BME280;41486;52.502;13.486;2023-05-24T02:52:58;101228.47;;;10.54;92.05
55610;BME280;41486;52.502;13.486;2023-05-24T02:55:26;101231.66;;;10.59;95.02
55610;BME280;41486;52.502;13.486;2023-05-24T02:57:54;101238.63;;;10.73;91.37
55610;BME280;41486;52.502;13.486;2023-05-24T03:00:23;101236.59;;;10.64;91.46
55610;BME280;41486;52.502;13.486;2023-05-24T03:02:53;101241.31;;;10.58;90.95
55610;BME280;41486;52.502;13.486;2023-05-24T03:05:21;101235.09;;;10.47;92.75
55610;BME280;41486;52.502;13.486;2023-05-24T03:07:51;101242.97;;;10.47;93.05
55610;BME280;41486;52.502;13.486;2023-05-24T03:10:19;101235.94;;;10.47;92.55
55610;BME280;41486;52.502;13.486;2023-05-24T03:12:47;101231.00;;;10.43;93.46
55610;BME280;41486;52.502;13.486;2023-05-24T03:15:15;101237.31;;;10.40;93.38
55610;BME280;41486;52.502;13.486;2023-05-24T03:17:44;101238.88;;;10.43;93.85
55610;BME280;41486;52.502;13.486;2023-05-24T03:20:13;101246.56;;;10.46;92.52
55610;BME280;41486;52.502;13.486;2023-05-24T03:22:42;101238.50;;;10.34;93.87
55610;BME280;41486;52.502;13.486;2023-05-24T03:25:11;101232.97;;;10.39;94.15
55610;BME280;41486;52.502;13.486;2023-05-24T03:27:40;101239.81;;;10.41;95.76
55610;BME280;41486;52.502;13.486;2023-05-24T03:30:08;101242.44;;;10.41;94.71
55610;BME280;41486;52.502;13.486;2023-05-24T03:32:48;101235.03;;;10.34;95.05
55610;BME280;41486;52.502;13.486;2023-05-24T03:35:16;101239.34;;;10.35;94.21
55610;BME280;41486;52.502;13.486;2023-05-24T03:37:45;101231.75;;;10.30;95.41
55610;BME280;41486;52.502;13.486;2023-05-24T03:40:15;101232.03;;;10.25;96.03
55610;BME280;41486;52.502;13.486;2023-05-24T03:42:55;101245.75;;;10.31;96.34
55610;BME280;41486;52.502;13.486;2023-05-24T03:45:39;101243.66;;;10.36;95.76
55610;BME280;41486;52.502;13.486;2023-05-24T03:48:07;101244.81;;;10.32;96.19
55610;BME280;41486;52.502;13.486;2023-05-24T03:50:35;101247.59;;;10.43;97.44
55610;BME280;41486;52.502;13.486;2023-05-24T03:53:03;101254.44;;;10.46;94.79
55610;BME280;41486;52.502;13.486;2023-05-24T03:55:33;101266.13;;;10.41;94.69
55610;BME280;41486;52.502;13.486;2023-05-24T03:58:01;101262.69;;;10.26;95.80
55610;BME280;41486;52.502;13.486;2023-05-24T04:00:29;101256.69;;;10.24;95.81
55610;BME280;41486;52.502;13.486;2023-05-24T04:02:58;101260.03;;;10.26;96.09
55610;BME280;41486;52.502;13.486;2023-05-24T04:05:27;101257.03;;;10.33;95.76
55610;BME280;41486;52.502;13.486;2023-05-24T04:07:56;101258.44;;;10.38;95.00
55610;BME280;41486;52.502;13.486;2023-05-24T04:10:24;101264.28;;;10.29;95.29
55610;BME280;41486;52.502;13.486;2023-05-24T04:12:53;101270.63;;;10.39;95.33
55610;BME280;41486;52.502;13.486;2023-05-24T04:15:22;101261.41;;;10.47;94.41
55610;BME280;41486;52.502;13.486;2023-05-24T04:17:50;101259.44;;;10.36;94.27
55610;BME280;41486;52.502;13.486;2023-05-24T04:20:21;101268.19;;;10.36;92.80
55610;BME280;41486;52.502;13.486;2023-05-24T04:22:51;101265.19;;;10.43;93.07
55610;BME280;41486;52.502;13.486;2023-05-24T04:25:19;101264.56;;;10.39;92.96
55610;BME280;41486;52.502;13.486;2023-05-24T04:27:47;101271.84;;;10.48;91.57
55610;BME280;41486;52.502;13.486;2023-05-24T04:30:17;101273.28;;;10.39;92.17
55610;BME280;41486;52.502;13.486;2023-05-24T04:32:46;101268.28;;;10.35;92.21
55610;BME280;41486;52.502;13.486;2023-05-24T04:35:15;101274.56;;;10.47;91.65
55610;BME280;41486;52.502;13.486;2023-05-24T04:37:43;101278.34;;;10.43;91.03
55610;BME280;41486;52.502;13.486;2023-05-24T04:40:12;101276.34;;;10.46;90.57
55610;BME280;41486;52.502;13.486;2023-05-24T04:42:40;101279.59;;;10.37;89.28
55610;BME280;41486;52.502;13.486;2023-05-24T04:45:09;101280.03;;;10.44;89.21
55610;BME280;41486;52.502;13.486;2023-05-24T04:47:40;101281.72;;;10.45;88.58
55610;BME280;41486;52.502;13.486;2023-05-24T04:50:08;101290.59;;;10.56;87.97
55610;BME280;41486;52.502;13.486;2023-05-24T04:52:36;101286.88;;;10.46;88.16
55610;BME280;41486;52.502;13.486;2023-05-24T04:55:05;101289.50;;;10.46;88.73
55610;BME280;41486;52.502;13.486;2023-05-24T04:57:33;101293.75;;;10.62;87.97
55610;BME280;41486;52.502;13.486;2023-05-24T05:00:01;101298.91;;;10.63;87.41
55610;BME280;41486;52.502;13.486;2023-05-24T05:02:31;101299.47;;;10.68;87.52
55610;BME280;41486;52.502;13.486;2023-05-24T05:05:00;101306.28;;;10.58;87.84
55610;BME280;41486;52.502;13.486;2023-05-24T05:07:28;101299.94;;;10.48;87.85
55610;BME280;41486;52.502;13.486;2023-05-24T05:09:56;101310.44;;;10.48;88.86
55610;BME280;41486;52.502;13.486;2023-05-24T05:12:24;101311.59;;;10.44;88.78
55610;BME280;41486;52.502;13.486;2023-05-24T05:14:52;101308.56;;;10.50;88.73
55610;BME280;41486;52.502;13.486;2023-05-24T05:17:20;101322.69;;;10.34;89.10
55610;BME280;41486;52.502;13.486;2023-05-24T05:19:48;101317.28;;;10.37;89.69
55610;BME280;41486;52.502;13.486;2023-05-24T05:22:18;101328.97;;;10.46;89.55
55610;BME280;41486;52.502;13.486;2023-05-24T05:24:46;101325.50;;;10.46;88.98
55610;BME280;41486;52.502;13.486;2023-05-24T05:27:14;101319.69;;;10.40;89.26
55610;BME280;41486;52.502;13.486;2023-05-24T05:29:42;101327.75;;;10.52;89.82
55610;BME280;41486;52.502;13.486;2023-05-24T05:32:10;101335.72;;;10.50;88.83
55610;BME280;41486;52.502;13.486;2023-05-24T05:34:38;101327.47;;;10.42;89.06
55610;BME280;41486;52.502;13.486;2023-05-24T05:37:06;101335.38;;;10.42;90.00
55610;BME280;41486;52.502;13.486;2023-05-24T05:39:35;101342.03;;;10.48;89.62
55610;BME280;41486;52.502;13.486;2023-05-24T05:42:04;101337.06;;;10.43;89.65
55610;BME280;41486;52.502;13.486;2023-05-24T05:44:35;101339.16;;;10.38;89.40
55610;BME280;41486;52.502;13.486;2023-05-24T05:47:03;101341.50;;;10.43;89.54
55610;BME280;41486;52.502;13.486;2023-05-24T05:49:33;101346.06;;;10.53;89.86
55610;BME280;41486;52.502;13.486;2023-05-24T05:52:02;101342.72;;;10.64;89.14
55610;BME280;41486;52.502;13.486;2023-05-24T05:54:30;101349.34;;;10.57;88.95
55610;BME280;41486;52.502;13.486;2023-05-24T05:56:59;101348.84;;;10.78;88.53
55610;BME280;41486;52.502;13.486;2023-05-24T05:59:27;101349.94;;;10.88;86.47
55610;BME280;41486;52.502;13.486;2023-05-24T06:01:55;101363.00;;;10.77;87.31
55610;BME280;41486;52.502;13.486;2023-05-24T06:04:23;101351.38;;;10.66;87.54
55610;BME280;41486;52.502;13.486;2023-05-24T06:06:51;101348.38;;;10.58;87.60
55610;BME280;41486;52.502;13.486;2023-05-24T06:09:22;101361.66;;;10.56;88.79
55610;BME280;41486;52.502;13.486;2023-05-24T06:11:50;101359.56;;;10.62;88.87
55610;BME280;41486;52.502;13.486;2023-05-24T06:14:20;101362.53;;;10.70;88.38
55610;BME280;41486;52.502;13.486;2023-05-24T06:16:51;101361.25;;;10.63;89.01
55610;BME280;41486;52.502;13.486;2023-05-24T06:19:23;101364.00;;;10.74;88.07
55610;BME280;41486;52.502;13.486;2023-05-24T06:21:51;101372.22;;;10.69;88.85
55610;BME280;41486;52.502;13.486;2023-05-24T06:24:19;101375.63;;;10.84;88.36
55610;BME280;41486;52.502;13.486;2023-05-24T06:26:47;101380.44;;;10.78;88.18
55610;BME280;41486;52.502;13.486;2023-05-24T06:29:15;101373.91;;;10.70;88.48
55610;BME280;41486;52.502;13.486;2023-05-24T06:31:47;101369.78;;;10.66;88.80
55610;BME280;41486;52.502;13.486;2023-05-24T06:34:16;101369.91;;;10.65;89.46
55610;BME280;41486;52.502;13.486;2023-05-24T06:36:46;101374.41;;;10.63;89.19
55610;BME280;41486;52.502;13.486;2023-05-24T06:39:16;101377.75;;;10.52;90.01
55610;BME280;41486;52.502;13.486;2023-05-24T06:41:45;101375.84;;;10.54;89.63
55610;BME280;41486;52.502;13.486;2023-05-24T06:44:13;101387.97;;;10.56;90.42
55610;BME280;41486;52.502;13.486;2023-05-24T06:46:42;101393.59;;;10.65;89.63
55610;BME280;41486;52.502;13.486;2023-05-24T06:49:12;101396.41;;;10.62;89.76
55610;BME280;41486;52.502;13.486;2023-05-24T06:51:40;101402.13;;;10.68;90.47
55610;BME280;41486;52.502;13.486;2023-05-24T06:54:08;101404.81;;;10.81;89.97
55610;BME280;41486;52.502;13.486;2023-05-24T06:56:36;101406.22;;;11.00;89.32
55610;BME280;41486;52.502;13.486;2023-05-24T06:59:04;101407.16;;;10.99;88.43
55610;BME280;41486;52.502;13.486;2023-05-24T07:01:32;101405.16;;;11.02;88.93
55610;BME280;41486;52.502;13.486;2023-05-24T07:04:00;101407.16;;;10.99;88.00
55610;BME280;41486;52.502;13.486;2023-05-24T07:06:30;101395.13;;;10.82;88.72
55610;BME280;41486;52.502;13.486;2023-05-24T07:08:58;101403.34;;;10.90;88.84
55610;BME280;41486;52.502;13.486;2023-05-24T07:11:27;101401.47;;;10.92;89.63
55610;BME280;41486;52.502;13.486;2023-05-24T07:13:55;101406.56;;;11.08;89.22
55610;BME280;41486;52.502;13.486;2023-05-24T07:16:23;101403.13;;;11.33;88.31
55610;BME280;41486;52.502;13.486;2023-05-24T07:18:52;101413.16;;;11.41;87.88
55610;BME280;41486;52.502;13.486;2023-05-24T07:21:20;101417.91;;;11.62;86.57
55610;BME280;41486;52.502;13.486;2023-05-24T07:23:50;101424.66;;;11.53;87.41
55610;BME280;41486;52.502;13.486;2023-05-24T07:26:18;101418.31;;;11.56;87.18
55610;BME280;41486;52.502;13.486;2023-05-24T07:28:46;101422.22;;;11.50;86.83
55610;BME280;41486;52.502;13.486;2023-05-24T07:31:14;101431.50;;;11.68;87.22
55610;BME280;41486;52.502;13.486;2023-05-24T07:33:42;101435.84;;;11.82;86.26
55610;BME280;41486;52.502;13.486;2023-05-24T07:36:10;101440.69;;;11.63;85.41
55610;BME280;41486;52.502;13.486;2023-05-24T07:38:38;101429.63;;;11.58;86.36
55610;BME280;41486;52.502;13.486;2023-05-24T07:41:07;101438.56;;;11.55;86.83
55610;BME280;41486;52.502;13.486;2023-05-24T07:43:35;101438.88;;;11.38;88.85
55610;BME280;41486;52.502;13.486;2023-05-24T07:46:04;101440.91;;;11.60;87.34
55610;BME280;41486;52.502;13.486;2023-05-24T07:48:32;101437.72;;;11.55;87.43
55610;BME280;41486;52.502;13.486;2023-05-24T07:51:00;101445.88;;;11.64;86.10
55610;BME280;41486;52.502;13.486;2023-05-24T07:53:28;101446.59;;;11.54;87.06
55610;BME280;41486;52.502;13.486;2023-05-24T07:55:56;101453.13;;;11.48;87.31
55610;BME280;41486;52.502;13.486;2023-05-24T07:58:25;101455.44;;;11.52;88.13
55610;BME280;41486;52.502;13.486;2023-05-24T08:00:53;101457.44;;;11.75;87.37
55610;BME280;41486;52.502;13.486;2023-05-24T08:06:39;101460.72;;;11.78;85.30
55610;BME280;41486;52.502;13.486;2023-05-24T08:09:07;101459.56;;;11.57;86.47
55610;BME280;41486;52.502;13.486;2023-05-24T08:11:35;101455.75;;;11.48;87.19
55610;BME280;41486;52.502;13.486;2023-05-24T08:14:07;101453.19;;;11.46;87.22
55610;BME280;41486;52.502;13.486;2023-05-24T08:16:35;101462.72;;;11.62;86.90
55610;BME280;41486;52.502;13.486;2023-05-24T08:19:05;101466.41;;;11.59;86.42
55610;BME280;41486;52.502;13.486;2023-05-24T08:21:36;101467.06;;;11.76;84.83
55610;BME280;41486;52.502;13.486;2023-05-24T08:24:04;101471.47;;;11.62;85.69
55610;BME280;41486;52.502;13.486;2023-05-24T08:26:35;101464.84;;;11.70;86.04
55610;BME280;41486;52.502;13.486;2023-05-24T08:29:05;101470.88;;;11.84;84.93
55610;BME280;41486;52.502;13.486;2023-05-24T08:31:33;101470.25;;;11.81;82.74
55610;BME280;41486;52.502;13.486;2023-05-24T08:34:02;101472.75;;;11.82;83.36
55610;BME280;41486;52.502;13.486;2023-05-24T08:36:30;101475.50;;;11.68;85.01
55610;BME280;41486;52.502;13.486;2023-05-24T08:38:58;101474.63;;;11.67;84.99
55610;BME280;41486;52.502;13.486;2023-05-24T08:41:27;101475.72;;;11.78;85.38
55610;BME280;41486;52.502;13.486;2023-05-24T08:43:56;101478.47;;;11.89;82.40
55610;BME280;41486;52.502;13.486;2023-05-24T08:46:28;101481.50;;;11.70;82.20
55610;BME280;41486;52.502;13.486;2023-05-24T08:48:57;101475.06;;;11.61;84.25
55610;BME280;41486;52.502;13.486;2023-05-24T08:51:26;101478.66;;;11.73;83.56
55610;BME280;41486;52.502;13.486;2023-05-24T08:53:55;101482.56;;;11.80;84.26
55610;BME280;41486;52.502;13.486;2023-05-24T08:56:25;101490.03;;;11.74;84.57
55610;BME280;41486;52.502;13.486;2023-05-24T08:58:54;101492.91;;;11.71;84.31
55610;BME280;41486;52.502;13.486;2023-05-24T09:01:23;101496.03;;;11.63;84.03
55610;BME280;41486;52.502;13.486;2023-05-24T09:03:58;101505.56;;;11.65;83.29
55610;BME280;41486;52.502;13.486;2023-05-24T09:06:27;101494.38;;;11.75;84.03
55610;BME280;41486;52.502;13.486;2023-05-24T09:08:56;101502.91;;;11.65;84.40
55610;BME280;41486;52.502;13.486;2023-05-24T09:11:26;101502.28;;;11.75;84.34
55610;BME280;41486;52.502;13.486;2023-05-24T09:13:56;101497.25;;;11.84;85.06
55610;BME280;41486;52.502;13.486;2023-05-24T09:16:24;101508.81;;;11.82;84.47
55610;BME280;41486;52.502;13.486;2023-05-24T09:18:52;101493.66;;;11.86;83.90
55610;BME280;41486;52.502;13.486;2023-05-24T09:21:22;101496.59;;;11.81;83.58
55610;BME280;41486;52.502;13.486;2023-05-24T09:23:50;101499.88;;;11.84;84.55
55610;BME280;41486;52.502;13.486;2023-05-24T09:26:20;101493.09;;;11.80;84.35
55610;BME280;41486;52.502;13.486;2023-05-24T09:28:48;101497.34;;;11.96;83.78
55610;BME280;41486;52.502;13.486;2023-05-24T09:31:17;101497.38;;;12.09;82.89
55610;BME280;41486;52.502;13.486;2023-05-24T09:33:47;101490.28;;;11.96;82.58
55610;BME280;41486;52.502;13.486;2023-05-24T09:36:16;101495.31;;;11.87;82.06
55610;BME280;41486;52.502;13.486;2023-05-24T09:38:46;101498.94;;;11.98;82.61
55610;BME280;41486;52.502;13.486;2023-05-24T09:41:14;101500.81;;;12.22;81.13
55610;BME280;41486;52.502;13.486;2023-05-24T09:43:48;101499.19;;;12.08;80.33
55610;BME280;41486;52.502;13.486;2023-05-24T09:46:17;101505.06;;;12.25;79.56
55610;BME280;41486;52.502;13.486;2023-05-24T09:48:56;101509.28;;;12.27;79.18
55610;BME280;41486;52.502;13.486;2023-05-24T09:51:24;101501.97;;;12.44;77.56
55610;BME280;41486;52.502;13.486;2023-05-24T09:53:57;101515.03;;;12.58;76.58
55610;BME280;41486;52.502;13.486;2023-05-24T09:56:28;101505.59;;;12.67;76.27
55610;BME280;41486;52.502;13.486;2023-05-24T09:58:56;101511.28;;;12.87;73.98
55610;BME280;41486;52.502;13.486;2023-05-24T10:01:25;101519.19;;;12.50;75.97
55610;BME280;41486;52.502;13.486;2023-05-24T10:03:55;101513.16;;;12.60;76.07
55610;BME280;41486;52.502;13.486;2023-05-24T10:06:24;101517.81;;;12.44;75.61
55610;BME280;41486;52.502;13.486;2023-05-24T10:08:52;101513.50;;;12.43;76.55
55610;BME280;41486;52.502;13.486;2023-05-24T10:11:24;101519.41;;;12.46;76.21
55610;BME280;41486;52.502;13.486;2023-05-24T10:13:53;101520.78;;;12.39;77.15
55610;BME280;41486;52.502;13.486;2023-05-24T10:16:22;101520.47;;;12.44;76.56
55610;BME280;41486;52.502;13.486;2023-05-24T10:18:50;101526.03;;;12.52;75.60
55610;BME280;41486;52.502;13.486;2023-05-24T10:21:20;101529.97;;;12.46;74.68
55610;BME280;41486;52.502;13.486;2023-05-24T10:23:51;101523.25;;;12.67;74.23
55610;BME280;41486;52.502;13.486;2023-05-24T10:26:28;101521.78;;;13.00;74.24
55610;BME280;41486;52.502;13.486;2023-05-24T10:29:02;101521.56;;;13.03;72.87
55610;BME280;41486;52.502;13.486;2023-05-24T10:31:36;101524.03;;;12.93;73.59
55610;BME280;41486;52.502;13.486;2023-05-24T10:34:06;101527.06;;;13.24;72.92
55610;BME280;41486;52.502;13.486;2023-05-24T10:36:36;101529.16;;;13.56;72.60
55610;BME280;41486;52.502;13.486;2023-05-24T10:39:08;101528.13;;;13.70;69.42
55610;BME280;41486;52.502;13.486;2023-05-24T10:41:40;101526.34;;;13.82;69.58
55610;BME280;41486;52.502;13.486;2023-05-24T10:44:18;101531.50;;;13.83;67.04
55610;BME280;41486;52.502;13.486;2023-05-24T10:47:18;101539.88;;;14.13;63.27
55610;BME280;41486;52.502;13.486;2023-05-24T10:49:47;101542.63;;;14.23;63.29
55610;BME280;41486;52.502;13.486;2023-05-24T10:52:17;101527.59;;;14.46;62.95
55610;BME280;41486;52.502;13.486;2023-05-24T10:55:00;101527.59;;;14.46;63.55
55610;BME280;41486;52.502;13.486;2023-05-24T10:57:32;101528.81;;;14.42;64.46
55610;BME280;41486;52.502;13.486;2023-05-24T11:00:25;101529.19;;;14.37;66.57
55610;BME280;41486;52.502;13.486;2023-05-24T11:03:01;101530.84;;;14.61;65.32
55610;BME280;41486;52.502;13.486;2023-05-24T11:05:48;101535.88;;;14.64;64.77
55610;BME280;41486;52.502;13.486;2023-05-24T11:08:22;101534.69;;;14.79;61.96
55610;BME280;41486;52.502;13.486;2023-05-24T11:11:01;101528.91;;;14.40;64.25
55610;BME280;41486;52.502;13.486;2023-05-24T11:13:54;101537.84;;;14.73;62.87
55610;BME280;41486;52.502;13.486;2023-05-24T11:16:32;101537.84;;;14.62;62.74
55610;BME280;41486;52.502;13.486;2023-05-24T11:19:10;101527.34;;;14.03;65.96
55610;BME280;41486;52.502;13.486;2023-05-24T11:21:43;101528.31;;;14.14;66.52
55610;BME280;41486;52.502;13.486;2023-05-24T11:24:11;101528.91;;;14.40;65.58
55610;BME280;41486;52.502;13.486;2023-05-24T11:26:39;101529.75;;;14.63;64.69
55610;BME280;41486;52.502;13.486;2023-05-24T11:29:09;101532.91;;;14.80;61.45
55610;BME280;41486;52.502;13.486;2023-05-24T11:31:46;101528.19;;;14.38;62.64
55610;BME280;41486;52.502;13.486;2023-05-24T11:34:14;101535.41;;;14.47;63.30
55610;BME280;41486;52.502;13.486;2023-05-24T11:36:43;101537.47;;;14.44;64.00
55610;BME280;41486;52.502;13.486;2023-05-24T11:39:11;101535.44;;;14.13;65.00
55610;BME280;41486;52.502;13.486;2023-05-24T11:41:40;101541.66;;;14.01;66.21
55610;BME280;41486;52.502;13.486;2023-05-24T11:44:10;101541.53;;;14.02;66.08
55610;BME280;41486;52.502;13.486;2023-05-24T11:46:42;101545.69;;;13.82;67.82
55610;BME280;41486;52.502;13.486;2023-05-24T11:49:12;101540.88;;;13.76;68.38
55610;BME280;41486;52.502;13.486;2023-05-24T11:51:40;101538.25;;;13.87;68.23
55610;BME280;41486;52.502;13.486;2023-05-24T11:54:08;101539.13;;;14.11;67.51
55610;BME280;41486;52.502;13.486;2023-05-24T11:56:37;101543.34;;;14.25;67.03
55610;BME280;41486;52.502;13.486;2023-05-24T11:59:10;101546.84;;;14.14;66.24
55610;BME280;41486;52.502;13.486;2023-05-24T12:01:41;101544.81;;;14.40;65.29
55610;BME280;41486;52.502;13.486;2023-05-24T12:04:10;101544.38;;;14.69;64.15
55610;BME280;41486;52.502;13.486;2023-05-24T12:06:39;101542.00;;;14.98;62.29
55610;BME280;41486;52.502;13.486;2023-05-24T12:09:08;101544.88;;;15.07;61.92
55610;BME280;41486;52.502;13.486;2023-05-24T12:11:39;101552.88;;;14.84;62.04
55610;BME280;41486;52.502;13.486;2023-05-24T12:14:13;101557.94;;;14.64;61.03
55610;BME280;41486;52.502;13.486;2023-05-24T12:16:42;101554.66;;;14.95;60.40
55610;BME280;41486;52.502;13.486;2023-05-24T12:19:20;101542.19;;;14.74;60.39
55610;BME280;41486;52.502;13.486;2023-05-24T12:22:00;101546.59;;;15.83;57.29
55610;BME280;41486;52.502;13.486;2023-05-24T12:24:30;101552.19;;;16.22;56.10
55610;BME280;41486;52.502;13.486;2023-05-24T12:27:00;101545.59;;;16.47;53.72
55610;BME280;41486;52.502;13.486;2023-05-24T12:29:40;101542.25;;;17.06;51.94
55610;BME280;41486;52.502;13.486;2023-05-24T12:32:11;101541.72;;;17.31;50.76
55610;BME280;41486;52.502;13.486;2023-05-24T12:34:41;101539.19;;;17.20;50.84
55610;BME280;41486;52.502;13.486;2023-05-24T12:37:10;101547.31;;;17.28;50.44
55610;BME280;41486;52.502;13.486;2023-05-24T12:39:41;101535.91;;;16.36;52.12
55610;BME280;41486;52.502;13.486;2023-05-24T12:42:11;101545.56;;;16.37;53.03
55610;BME280;41486;52.502;13.486;2023-05-24T12:44:42;101541.91;;;16.79;52.51
55610;BME280;41486;52.502;13.486;2023-05-24T12:47:10;101541.81;;;17.89;50.19
55610;BME280;41486;52.502;13.486;2023-05-24T12:49:39;101538.88;;;17.03;49.76
55610;BME280;41486;52.502;13.486;2023-05-24T12:52:07;101541.91;;;16.89;52.65
55610;BME280;41486;52.502;13.486;2023-05-24T12:54:35;101546.03;;;16.00;55.83
55610;BME280;41486;52.502;13.486;2023-05-24T12:57:03;101546.28;;;15.76;57.53
55610;BME280;41486;52.502;13.486;2023-05-24T12:59:32;101539.31;;;15.96;56.84
55610;BME280;41486;52.502;13.486;2023-05-24T13:02:02;101540.44;;;15.61;58.31